sensor_id;sensor_type;location;lat;lon;timestamp;P1;durP1;ratioP1;P2;durP2;ratioP2
55368;SDS011;41247;49.736;8.752;2024-01-25T00:00:18;37.95;;;3.83;;
55368;SDS011;41247;49.736;8.752;2024-01-25T00:03:59;38.80;;;4.32;;
55368;SDS011;41247;49.736;8.752;2024-01-25T00:07:46;33.83;;;4.13;;
55368;SDS011;41247;49.736;8.752;2024-01-25T00:11:30;33.55;;;3.92;;
55368;SDS011;41247;49.736;8.752;2024-01-25T00:15:10;27.13;;;3.40;;
55368;SDS011;41247;49.736;8.752;2024-01-25T00:18:51;29.05;;;3.30;;
55368;SDS011;41247;49.736;8.752;2024-01-25T00:22:31;30.25;;;3.70;;
55368;SDS011;41247;49.736;8.752;2024-01-25T00:26:12;30.67;;;4.43;;
55368;SDS011;41247;49.736;8.752;2024-01-25T00:29:53;31.00;;;3.40;;
55368;SDS011;41247;49.736;8.752;2024-01-25T00:33:34;37.90;;;4.05;;
55368;SDS011;41247;49.736;8.752;2024-01-25T00:37:14;26.65;;;3.50;;
55368;SDS011;41247;49.736;8.752;2024-01-25T00:40:56;24.98;;;3.17;;
55368;SDS011;41247;49.736;8.752;2024-01-25T00:44:36;26.45;;;3.40;;
55368;SDS011;41247;49.736;8.752;2024-01-25T00:48:17;21.73;;;3.17;;
55368;SDS011;41247;49.736;8.752;2024-01-25T00:51:58;24.20;;;3.00;;
55368;SDS011;41247;49.736;8.752;2024-01-25T00:55:40;31.38;;;4.03;;
55368;SDS011;41247;49.736;8.752;2024-01-25T00:59:22;31.58;;;3.42;;
55368;SDS011;41247;49.736;8.752;2024-01-25T01:03:03;30.13;;;3.25;;
55368;SDS011;41247;49.736;8.752;2024-01-25T01:06:44;32.67;;;3.80;;
55368;SDS011;41247;49.736;8.752;2024-01-25T01:10:25;26.90;;;3.58;;
55368;SDS011;41247;49.736;8.752;2024-01-25T01:14:05;33.13;;;4.10;;
55368;SDS011;41247;49.736;8.752;2024-01-25T01:17:46;29.00;;;4.07;;
55368;SDS011;41247;49.736;8.752;2024-01-25T01:21:26;31.10;;;4.03;;
55368;SDS011;41247;49.736;8.752;2024-01-25T01:25:07;36.08;;;4.50;;
55368;SDS011;41247;49.736;8.752;2024-01-25T01:28:48;34.35;;;3.80;;
55368;SDS011;41247;49.736;8.752;2024-01-25T01:32:28;36.85;;;4.28;;
55368;SDS011;41247;49.736;8.752;2024-01-25T01:36:09;29.17;;;3.35;;
55368;SDS011;41247;49.736;8.752;2024-01-25T01:39:49;28.13;;;3.35;;
55368;SDS011;41247;49.736;8.752;2024-01-25T01:43:30;29.92;;;3.42;;
55368;SDS011;41247;49.736;8.752;2024-01-25T01:47:11;35.97;;;3.40;;
55368;SDS011;41247;49.736;8.752;2024-01-25T01:50:51;34.13;;;3.60;;
55368;SDS011;41247;49.736;8.752;2024-01-25T01:54:32;28.98;;;3.90;;
55368;SDS011;41247;49.736;8.752;2024-01-25T01:58:13;30.55;;;3.70;;
55368;SDS011;41247;49.736;8.752;2024-01-25T02:01:54;22.70;;;3.55;;
55368;SDS011;41247;49.736;8.752;2024-01-25T02:05:34;32.25;;;3.33;;
55368;SDS011;41247;49.736;8.752;2024-01-25T02:09:16;24.35;;;3.70;;
55368;SDS011;41247;49.736;8.752;2024-01-25T02:12:57;24.67;;;3.42;;
55368;SDS011;41247;49.736;8.752;2024-01-25T02:16:37;25.30;;;3.50;;
55368;SDS011;41247;49.736;8.752;2024-01-25T02:20:18;22.55;;;3.00;;
55368;SDS011;41247;49.736;8.752;2024-01-25T02:23:59;30.77;;;3.85;;
55368;SDS011;41247;49.736;8.752;2024-01-25T02:27:39;19.50;;;3.15;;
55368;SDS011;41247;49.736;8.752;2024-01-25T02:31:20;25.80;;;3.15;;
55368;SDS011;41247;49.736;8.752;2024-01-25T02:35:01;32.00;;;3.65;;
55368;SDS011;41247;49.736;8.752;2024-01-25T02:38:41;18.80;;;3.55;;
55368;SDS011;41247;49.736;8.752;2024-01-25T02:42:22;33.83;;;4.03;;
55368;SDS011;41247;49.736;8.752;2024-01-25T02:46:02;27.80;;;3.40;;
55368;SDS011;41247;49.736;8.752;2024-01-25T02:49:43;27.40;;;3.17;;
55368;SDS011;41247;49.736;8.752;2024-01-25T02:53:24;23.60;;;3.33;;
55368;SDS011;41247;49.736;8.752;2024-01-25T02:57:04;30.40;;;4.05;;
55368;SDS011;41247;49.736;8.752;2024-01-25T03:00:45;25.23;;;3.55;;
55368;SDS011;41247;49.736;8.752;2024-01-25T03:04:26;25.98;;;4.13;;
55368;SDS011;41247;49.736;8.752;2024-01-25T03:08:06;34.53;;;3.47;;
55368;SDS011;41247;49.736;8.752;2024-01-25T03:11:47;29.70;;;3.05;;
55368;SDS011;41247;49.736;8.752;2024-01-25T03:15:28;29.35;;;3.80;;
55368;SDS011;41247;49.736;8.752;2024-01-25T03:19:08;27.42;;;3.45;;
55368;SDS011;41247;49.736;8.752;2024-01-25T03:22:50;26.10;;;2.85;;
55368;SDS011;41247;49.736;8.752;2024-01-25T03:26:31;26.33;;;3.97;;
55368;SDS011;41247;49.736;8.752;2024-01-25T03:30:11;32.60;;;3.78;;
55368;SDS011;41247;49.736;8.752;2024-01-25T03:33:52;27.23;;;4.18;;
55368;SDS011;41247;49.736;8.752;2024-01-25T03:37:33;27.67;;;3.88;;
55368;SDS011;41247;49.736;8.752;2024-01-25T03:41:14;32.97;;;4.60;;
55368;SDS011;41247;49.736;8.752;2024-01-25T03:44:54;26.42;;;3.50;;
55368;SDS011;41247;49.736;8.752;2024-01-25T03:48:35;29.92;;;3.83;;
55368;SDS011;41247;49.736;8.752;2024-01-25T03:52:15;30.90;;;3.38;;
55368;SDS011;41247;49.736;8.752;2024-01-25T03:55:56;27.55;;;3.35;;
55368;SDS011;41247;49.736;8.752;2024-01-25T03:59:36;33.58;;;3.45;;
55368;SDS011;41247;49.736;8.752;2024-01-25T04:03:17;30.00;;;3.40;;
55368;SDS011;41247;49.736;8.752;2024-01-25T04:06:58;30.33;;;3.78;;
55368;SDS011;41247;49.736;8.752;2024-01-25T04:10:38;27.67;;;3.50;;
55368;SDS011;41247;49.736;8.752;2024-01-25T04:14:19;36.95;;;5.15;;
55368;SDS011;41247;49.736;8.752;2024-01-25T04:17:59;31.67;;;3.60;;
55368;SDS011;41247;49.736;8.752;2024-01-25T04:21:40;34.92;;;3.80;;
55368;SDS011;41247;49.736;8.752;2024-01-25T04:25:20;28.92;;;4.65;;
55368;SDS011;41247;49.736;8.752;2024-01-25T04:29:01;29.35;;;3.60;;
55368;SDS011;41247;49.736;8.752;2024-01-25T04:32:42;25.55;;;3.53;;
55368;SDS011;41247;49.736;8.752;2024-01-25T04:36:22;35.88;;;4.00;;
55368;SDS011;41247;49.736;8.752;2024-01-25T04:40:03;32.35;;;3.33;;
55368;SDS011;41247;49.736;8.752;2024-01-25T04:43:44;34.10;;;3.83;;
55368;SDS011;41247;49.736;8.752;2024-01-25T04:47:25;35.10;;;4.47;;
55368;SDS011;41247;49.736;8.752;2024-01-25T04:51:05;28.17;;;3.08;;
55368;SDS011;41247;49.736;8.752;2024-01-25T04:54:46;32.03;;;4.13;;
55368;SDS011;41247;49.736;8.752;2024-01-25T04:58:27;31.25;;;3.35;;
55368;SDS011;41247;49.736;8.752;2024-01-25T05:02:07;34.85;;;4.13;;
55368;SDS011;41247;49.736;8.752;2024-01-25T05:05:48;39.67;;;5.03;;
55368;SDS011;41247;49.736;8.752;2024-01-25T05:09:28;29.85;;;3.50;;
55368;SDS011;41247;49.736;8.752;2024-01-25T05:13:09;35.63;;;4.18;;
55368;SDS011;41247;49.736;8.752;2024-01-25T05:16:50;27.83;;;3.53;;
55368;SDS011;41247;49.736;8.752;2024-01-25T05:20:30;27.75;;;3.90;;
55368;SDS011;41247;49.736;8.752;2024-01-25T05:24:11;37.03;;;3.92;;
55368;SDS011;41247;49.736;8.752;2024-01-25T05:27:52;32.42;;;4.68;;
55368;SDS011;41247;49.736;8.752;2024-01-25T05:31:32;32.22;;;3.67;;
55368;SDS011;41247;49.736;8.752;2024-01-25T05:35:13;25.27;;;3.20;;
55368;SDS011;41247;49.736;8.752;2024-01-25T05:38:54;33.05;;;4.18;;
55368;SDS011;41247;49.736;8.752;2024-01-25T05:42:35;32.30;;;4.65;;
55368;SDS011;41247;49.736;8.752;2024-01-25T05:46:15;31.95;;;4.60;;
55368;SDS011;41247;49.736;8.752;2024-01-25T05:49:56;26.40;;;3.78;;
55368;SDS011;41247;49.736;8.752;2024-01-25T05:53:37;24.98;;;3.97;;
55368;SDS011;41247;49.736;8.752;2024-01-25T05:57:18;50.67;;;5.07;;
55368;SDS011;41247;49.736;8.752;2024-01-25T06:00:59;30.17;;;3.75;;
55368;SDS011;41247;49.736;8.752;2024-01-25T06:04:40;30.85;;;4.22;;
55368;SDS011;41247;49.736;8.752;2024-01-25T06:08:21;35.38;;;3.75;;
55368;SDS011;41247;49.736;8.752;2024-01-25T06:12:02;40.83;;;3.88;;
55368;SDS011;41247;49.736;8.752;2024-01-25T06:15:43;34.33;;;4.15;;
55368;SDS011;41247;49.736;8.752;2024-01-25T06:19:24;30.17;;;3.35;;
55368;SDS011;41247;49.736;8.752;2024-01-25T06:23:05;38.72;;;4.45;;
55368;SDS011;41247;49.736;8.752;2024-01-25T06:26:46;37.30;;;4.20;;
55368;SDS011;41247;49.736;8.752;2024-01-25T06:30:27;31.95;;;4.55;;
55368;SDS011;41247;49.736;8.752;2024-01-25T06:34:07;26.60;;;3.47;;
55368;SDS011;41247;49.736;8.752;2024-01-25T06:37:48;38.20;;;4.22;;
55368;SDS011;41247;49.736;8.752;2024-01-25T06:41:28;29.23;;;3.58;;
55368;SDS011;41247;49.736;8.752;2024-01-25T06:45:09;32.53;;;4.70;;
55368;SDS011;41247;49.736;8.752;2024-01-25T06:48:50;27.27;;;3.75;;
55368;SDS011;41247;49.736;8.752;2024-01-25T06:52:31;28.10;;;3.05;;
55368;SDS011;41247;49.736;8.752;2024-01-25T06:56:14;28.90;;;3.88;;
55368;SDS011;41247;49.736;8.752;2024-01-25T06:59:55;33.65;;;3.50;;
55368;SDS011;41247;49.736;8.752;2024-01-25T07:03:35;33.22;;;4.15;;
55368;SDS011;41247;49.736;8.752;2024-01-25T07:07:17;39.20;;;4.18;;
55368;SDS011;41247;49.736;8.752;2024-01-25T07:10:57;33.00;;;3.97;;
55368;SDS011;41247;49.736;8.752;2024-01-25T07:14:38;39.97;;;3.50;;
55368;SDS011;41247;49.736;8.752;2024-01-25T07:18:20;31.30;;;4.75;;
55368;SDS011;41247;49.736;8.752;2024-01-25T07:22:00;33.95;;;4.50;;
55368;SDS011;41247;49.736;8.752;2024-01-25T07:25:41;30.85;;;3.53;;
55368;SDS011;41247;49.736;8.752;2024-01-25T07:29:22;31.45;;;4.25;;
55368;SDS011;41247;49.736;8.752;2024-01-25T07:33:03;28.08;;;3.63;;
55368;SDS011;41247;49.736;8.752;2024-01-25T07:36:45;34.30;;;3.97;;
55368;SDS011;41247;49.736;8.752;2024-01-25T07:40:26;36.03;;;3.80;;
55368;SDS011;41247;49.736;8.752;2024-01-25T07:44:07;26.02;;;3.90;;
55368;SDS011;41247;49.736;8.752;2024-01-25T07:47:47;34.33;;;4.60;;
55368;SDS011;41247;49.736;8.752;2024-01-25T07:51:29;34.60;;;5.82;;
55368;SDS011;41247;49.736;8.752;2024-01-25T07:55:09;34.72;;;4.82;;
55368;SDS011;41247;49.736;8.752;2024-01-25T07:58:50;40.65;;;5.25;;
55368;SDS011;41247;49.736;8.752;2024-01-25T08:02:31;31.20;;;5.40;;
55368;SDS011;41247;49.736;8.752;2024-01-25T08:06:11;41.42;;;5.25;;
55368;SDS011;41247;49.736;8.752;2024-01-25T08:09:52;36.47;;;4.93;;
55368;SDS011;41247;49.736;8.752;2024-01-25T08:13:32;40.17;;;5.55;;
55368;SDS011;41247;49.736;8.752;2024-01-25T08:17:13;34.47;;;5.47;;
55368;SDS011;41247;49.736;8.752;2024-01-25T08:20:54;30.95;;;4.78;;
55368;SDS011;41247;49.736;8.752;2024-01-25T08:24:34;40.45;;;5.03;;
55368;SDS011;41247;49.736;8.752;2024-01-25T08:28:15;38.45;;;4.78;;
55368;SDS011;41247;49.736;8.752;2024-01-25T08:31:56;28.85;;;4.10;;
55368;SDS011;41247;49.736;8.752;2024-01-25T08:35:36;47.15;;;4.65;;
55368;SDS011;41247;49.736;8.752;2024-01-25T08:39:17;45.10;;;4.30;;
55368;SDS011;41247;49.736;8.752;2024-01-25T08:42:57;30.98;;;4.25;;
55368;SDS011;41247;49.736;8.752;2024-01-25T08:46:38;35.63;;;4.43;;
55368;SDS011;41247;49.736;8.752;2024-01-25T08:50:19;34.28;;;4.93;;
55368;SDS011;41247;49.736;8.752;2024-01-25T08:53:59;30.58;;;4.35;;
55368;SDS011;41247;49.736;8.752;2024-01-25T08:57:40;32.30;;;4.90;;
55368;SDS011;41247;49.736;8.752;2024-01-25T09:01:20;43.63;;;4.80;;
55368;SDS011;41247;49.736;8.752;2024-01-25T09:05:01;33.72;;;4.63;;
55368;SDS011;41247;49.736;8.752;2024-01-25T09:08:42;33.10;;;4.30;;
55368;SDS011;41247;49.736;8.752;2024-01-25T09:12:22;29.38;;;3.92;;
55368;SDS011;41247;49.736;8.752;2024-01-25T09:16:03;36.20;;;4.22;;
55368;SDS011;41247;49.736;8.752;2024-01-25T09:19:44;35.33;;;4.68;;
55368;SDS011;41247;49.736;8.752;2024-01-25T09:23:25;36.90;;;4.50;;
55368;SDS011;41247;49.736;8.752;2024-01-25T09:27:05;32.88;;;4.53;;
55368;SDS011;41247;49.736;8.752;2024-01-25T09:30:46;46.40;;;4.75;;
55368;SDS011;41247;49.736;8.752;2024-01-25T09:34:26;37.65;;;4.80;;
55368;SDS011;41247;49.736;8.752;2024-01-25T09:38:07;34.65;;;5.28;;
55368;SDS011;41247;49.736;8.752;2024-01-25T09:41:48;29.88;;;4.45;;
55368;SDS011;41247;49.736;8.752;2024-01-25T09:45:29;38.97;;;4.20;;
55368;SDS011;41247;49.736;8.752;2024-01-25T09:49:11;35.92;;;5.57;;
55368;SDS011;41247;49.736;8.752;2024-01-25T09:52:55;38.05;;;4.65;;
55368;SDS011;41247;49.736;8.752;2024-01-25T09:56:37;27.77;;;4.22;;
55368;SDS011;41247;49.736;8.752;2024-01-25T10:00:21;34.78;;;5.32;;
55368;SDS011;41247;49.736;8.752;2024-01-25T10:04:01;33.78;;;4.88;;
55368;SDS011;41247;49.736;8.752;2024-01-25T10:07:46;33.38;;;5.25;;
55368;SDS011;41247;49.736;8.752;2024-01-25T10:11:27;35.40;;;4.22;;
55368;SDS011;41247;49.736;8.752;2024-01-25T10:15:07;41.33;;;4.32;;
55368;SDS011;41247;49.736;8.752;2024-01-25T10:18:49;30.10;;;4.75;;
55368;SDS011;41247;49.736;8.752;2024-01-25T10:22:29;39.35;;;5.35;;
55368;SDS011;41247;49.736;8.752;2024-01-25T10:26:10;38.13;;;5.03;;
55368;SDS011;41247;49.736;8.752;2024-01-25T10:29:51;40.50;;;4.60;;
55368;SDS011;41247;49.736;8.752;2024-01-25T10:33:31;35.47;;;4.43;;
55368;SDS011;41247;49.736;8.752;2024-01-25T10:37:13;36.88;;;5.35;;
55368;SDS011;41247;49.736;8.752;2024-01-25T10:40:54;30.38;;;4.43;;
55368;SDS011;41247;49.736;8.752;2024-01-25T10:44:35;37.65;;;4.75;;
55368;SDS011;41247;49.736;8.752;2024-01-25T10:48:16;27.60;;;3.95;;
55368;SDS011;41247;49.736;8.752;2024-01-25T10:51:56;40.53;;;5.80;;
55368;SDS011;41247;49.736;8.752;2024-01-25T10:55:38;31.00;;;4.53;;
55368;SDS011;41247;49.736;8.752;2024-01-25T10:59:19;35.30;;;4.60;;
55368;SDS011;41247;49.736;8.752;2024-01-25T11:03:00;36.53;;;4.55;;
55368;SDS011;41247;49.736;8.752;2024-01-25T11:06:42;31.33;;;4.88;;
55368;SDS011;41247;49.736;8.752;2024-01-25T11:10:26;31.55;;;4.80;;
55368;SDS011;41247;49.736;8.752;2024-01-25T11:14:11;32.03;;;4.70;;
55368;SDS011;41247;49.736;8.752;2024-01-25T11:17:53;28.38;;;4.03;;
55368;SDS011;41247;49.736;8.752;2024-01-25T11:21:44;31.77;;;4.07;;
55368;SDS011;41247;49.736;8.752;2024-01-25T11:25:26;37.78;;;5.03;;
55368;SDS011;41247;49.736;8.752;2024-01-25T11:29:08;27.50;;;4.35;;
55368;SDS011;41247;49.736;8.752;2024-01-25T11:32:49;27.23;;;4.40;;
55368;SDS011;41247;49.736;8.752;2024-01-25T11:36:30;27.10;;;4.30;;
55368;SDS011;41247;49.736;8.752;2024-01-25T11:40:11;27.45;;;4.28;;
55368;SDS011;41247;49.736;8.752;2024-01-25T11:43:55;31.48;;;4.30;;
55368;SDS011;41247;49.736;8.752;2024-01-25T11:47:36;34.05;;;4.38;;
55368;SDS011;41247;49.736;8.752;2024-01-25T11:51:18;29.23;;;4.43;;
55368;SDS011;41247;49.736;8.752;2024-01-25T11:54:59;26.23;;;3.88;;
55368;SDS011;41247;49.736;8.752;2024-01-25T11:58:49;26.30;;;4.20;;
55368;SDS011;41247;49.736;8.752;2024-01-25T12:02:30;27.55;;;4.28;;
55368;SDS011;41247;49.736;8.752;2024-01-25T12:06:11;31.52;;;4.38;;
55368;SDS011;41247;49.736;8.752;2024-01-25T12:09:59;29.75;;;4.28;;
55368;SDS011;41247;49.736;8.752;2024-01-25T12:13:45;27.35;;;4.47;;
55368;SDS011;41247;49.736;8.752;2024-01-25T12:17:26;31.20;;;4.00;;
55368;SDS011;41247;49.736;8.752;2024-01-25T12:21:09;26.45;;;3.72;;
55368;SDS011;41247;49.736;8.752;2024-01-25T12:24:52;26.65;;;4.03;;
55368;SDS011;41247;49.736;8.752;2024-01-25T12:28:34;30.08;;;4.38;;
55368;SDS011;41247;49.736;8.752;2024-01-25T12:32:15;29.73;;;3.90;;
55368;SDS011;41247;49.736;8.752;2024-01-25T12:35:56;23.23;;;3.63;;
55368;SDS011;41247;49.736;8.752;2024-01-25T12:39:37;34.40;;;3.90;;
55368;SDS011;41247;49.736;8.752;2024-01-25T12:43:18;19.50;;;3.45;;
55368;SDS011;41247;49.736;8.752;2024-01-25T12:46:59;21.77;;;3.88;;
55368;SDS011;41247;49.736;8.752;2024-01-25T12:50:40;28.70;;;3.83;;
55368;SDS011;41247;49.736;8.752;2024-01-25T12:54:21;26.05;;;3.67;;
55368;SDS011;41247;49.736;8.752;2024-01-25T12:58:02;27.73;;;3.53;;
55368;SDS011;41247;49.736;8.752;2024-01-25T13:01:43;25.90;;;4.00;;
55368;SDS011;41247;49.736;8.752;2024-01-25T13:05:24;30.25;;;3.88;;
55368;SDS011;41247;49.736;8.752;2024-01-25T13:09:05;25.48;;;4.22;;
55368;SDS011;41247;49.736;8.752;2024-01-25T13:12:45;24.88;;;4.28;;
55368;SDS011;41247;49.736;8.752;2024-01-25T13:16:27;19.35;;;4.13;;
55368;SDS011;41247;49.736;8.752;2024-01-25T13:20:07;22.55;;;3.90;;
55368;SDS011;41247;49.736;8.752;2024-01-25T13:23:48;27.80;;;4.05;;
55368;SDS011;41247;49.736;8.752;2024-01-25T13:27:29;26.77;;;4.32;;
55368;SDS011;41247;49.736;8.752;2024-01-25T13:31:09;30.67;;;3.95;;
55368;SDS011;41247;49.736;8.752;2024-01-25T13:34:50;26.20;;;3.22;;
55368;SDS011;41247;49.736;8.752;2024-01-25T13:38:31;18.63;;;3.75;;
55368;SDS011;41247;49.736;8.752;2024-01-25T13:42:11;23.48;;;3.30;;
55368;SDS011;41247;49.736;8.752;2024-01-25T13:45:52;28.83;;;3.70;;
55368;SDS011;41247;49.736;8.752;2024-01-25T13:49:34;27.40;;;4.18;;
55368;SDS011;41247;49.736;8.752;2024-01-25T13:53:14;23.60;;;3.50;;
55368;SDS011;41247;49.736;8.752;2024-01-25T13:56:55;24.58;;;3.88;;
55368;SDS011;41247;49.736;8.752;2024-01-25T14:00:36;24.00;;;4.00;;
55368;SDS011;41247;49.736;8.752;2024-01-25T14:04:16;27.75;;;3.92;;
55368;SDS011;41247;49.736;8.752;2024-01-25T14:07:57;28.50;;;4.35;;
55368;SDS011;41247;49.736;8.752;2024-01-25T14:11:38;24.77;;;4.25;;
55368;SDS011;41247;49.736;8.752;2024-01-25T14:15:18;22.88;;;4.47;;
55368;SDS011;41247;49.736;8.752;2024-01-25T14:18:59;28.33;;;3.95;;
55368;SDS011;41247;49.736;8.752;2024-01-25T14:22:40;23.17;;;4.10;;
55368;SDS011;41247;49.736;8.752;2024-01-25T14:26:20;30.38;;;4.35;;
55368;SDS011;41247;49.736;8.752;2024-01-25T14:30:01;27.40;;;3.80;;
55368;SDS011;41247;49.736;8.752;2024-01-25T14:33:42;22.92;;;3.67;;
55368;SDS011;41247;49.736;8.752;2024-01-25T14:37:23;24.88;;;4.25;;
55368;SDS011;41247;49.736;8.752;2024-01-25T14:41:03;29.83;;;4.10;;
55368;SDS011;41247;49.736;8.752;2024-01-25T14:44:49;24.20;;;4.65;;
55368;SDS011;41247;49.736;8.752;2024-01-25T14:48:29;25.95;;;4.97;;
55368;SDS011;41247;49.736;8.752;2024-01-25T14:52:10;27.85;;;4.85;;
55368;SDS011;41247;49.736;8.752;2024-01-25T14:55:50;26.73;;;4.50;;
55368;SDS011;41247;49.736;8.752;2024-01-25T14:59:31;28.05;;;4.22;;
55368;SDS011;41247;49.736;8.752;2024-01-25T15:03:13;29.88;;;4.03;;
55368;SDS011;41247;49.736;8.752;2024-01-25T15:06:53;18.42;;;3.67;;
55368;SDS011;41247;49.736;8.752;2024-01-25T15:10:34;23.73;;;3.85;;
55368;SDS011;41247;49.736;8.752;2024-01-25T15:14:14;30.27;;;3.83;;
55368;SDS011;41247;49.736;8.752;2024-01-25T15:17:56;28.95;;;3.83;;
55368;SDS011;41247;49.736;8.752;2024-01-25T15:21:37;29.70;;;4.05;;
55368;SDS011;41247;49.736;8.752;2024-01-25T15:25:18;24.15;;;3.63;;
55368;SDS011;41247;49.736;8.752;2024-01-25T15:28:59;27.52;;;4.20;;
55368;SDS011;41247;49.736;8.752;2024-01-25T15:32:39;31.00;;;4.18;;
55368;SDS011;41247;49.736;8.752;2024-01-25T15:36:20;26.27;;;3.78;;
55368;SDS011;41247;49.736;8.752;2024-01-25T15:40:08;29.45;;;3.70;;
55368;SDS011;41247;49.736;8.752;2024-01-25T15:43:49;28.52;;;3.90;;
55368;SDS011;41247;49.736;8.752;2024-01-25T15:47:29;29.65;;;4.22;;
55368;SDS011;41247;49.736;8.752;2024-01-25T15:51:11;27.75;;;3.67;;
55368;SDS011;41247;49.736;8.752;2024-01-25T15:54:52;22.67;;;3.40;;
55368;SDS011;41247;49.736;8.752;2024-01-25T15:58:33;25.63;;;3.97;;
55368;SDS011;41247;49.736;8.752;2024-01-25T16:02:13;26.13;;;4.07;;
55368;SDS011;41247;49.736;8.752;2024-01-25T16:05:54;27.95;;;4.07;;
55368;SDS011;41247;49.736;8.752;2024-01-25T16:09:34;35.28;;;4.75;;
55368;SDS011;41247;49.736;8.752;2024-01-25T16:13:16;25.95;;;3.80;;
55368;SDS011;41247;49.736;8.752;2024-01-25T16:16:57;28.67;;;4.03;;
55368;SDS011;41247;49.736;8.752;2024-01-25T16:20:37;22.15;;;3.75;;
55368;SDS011;41247;49.736;8.752;2024-01-25T16:24:18;24.05;;;4.22;;
55368;SDS011;41247;49.736;8.752;2024-01-25T16:27:58;26.20;;;4.55;;
55368;SDS011;41247;49.736;8.752;2024-01-25T16:31:39;26.77;;;4.40;;
55368;SDS011;41247;49.736;8.752;2024-01-25T16:35:19;26.17;;;4.28;;
55368;SDS011;41247;49.736;8.752;2024-01-25T16:39:00;26.95;;;4.82;;
55368;SDS011;41247;49.736;8.752;2024-01-25T16:42:41;20.58;;;4.47;;
55368;SDS011;41247;49.736;8.752;2024-01-25T16:46:21;26.52;;;4.80;;
55368;SDS011;41247;49.736;8.752;2024-01-25T16:50:02;29.98;;;5.43;;
55368;SDS011;41247;49.736;8.752;2024-01-25T16:53:43;34.33;;;9.15;;
55368;SDS011;41247;49.736;8.752;2024-01-25T16:57:23;37.85;;;6.15;;
55368;SDS011;41247;49.736;8.752;2024-01-25T17:01:04;35.88;;;6.82;;
55368;SDS011;41247;49.736;8.752;2024-01-25T17:04:45;33.08;;;5.85;;
55368;SDS011;41247;49.736;8.752;2024-01-25T17:08:26;28.00;;;5.00;;
55368;SDS011;41247;49.736;8.752;2024-01-25T17:12:06;25.83;;;3.97;;
55368;SDS011;41247;49.736;8.752;2024-01-25T17:15:47;29.08;;;3.83;;
55368;SDS011;41247;49.736;8.752;2024-01-25T17:19:28;24.90;;;4.25;;
55368;SDS011;41247;49.736;8.752;2024-01-25T17:23:08;26.02;;;4.53;;
55368;SDS011;41247;49.736;8.752;2024-01-25T17:26:49;27.77;;;4.00;;
55368;SDS011;41247;49.736;8.752;2024-01-25T17:30:29;24.40;;;3.97;;
55368;SDS011;41247;49.736;8.752;2024-01-25T17:34:10;31.38;;;4.93;;
55368;SDS011;41247;49.736;8.752;2024-01-25T17:37:50;31.38;;;6.30;;
55368;SDS011;41247;49.736;8.752;2024-01-25T17:41:32;39.67;;;10.73;;
55368;SDS011;41247;49.736;8.752;2024-01-25T17:45:13;26.42;;;6.05;;
55368;SDS011;41247;49.736;8.752;2024-01-25T17:48:53;32.35;;;5.40;;
55368;SDS011;41247;49.736;8.752;2024-01-25T17:52:34;31.75;;;5.22;;
55368;SDS011;41247;49.736;8.752;2024-01-25T17:56:14;24.15;;;4.45;;
55368;SDS011;41247;49.736;8.752;2024-01-25T17:59:55;23.00;;;4.20;;
55368;SDS011;41247;49.736;8.752;2024-01-25T18:03:36;27.65;;;4.07;;
55368;SDS011;41247;49.736;8.752;2024-01-25T18:07:16;37.75;;;4.60;;
55368;SDS011;41247;49.736;8.752;2024-01-25T18:10:57;24.17;;;4.13;;
55368;SDS011;41247;49.736;8.752;2024-01-25T18:14:37;33.25;;;4.75;;
55368;SDS011;41247;49.736;8.752;2024-01-25T18:18:18;22.45;;;4.25;;
55368;SDS011;41247;49.736;8.752;2024-01-25T18:22:00;37.25;;;5.35;;
55368;SDS011;41247;49.736;8.752;2024-01-25T18:25:41;38.78;;;7.68;;
55368;SDS011;41247;49.736;8.752;2024-01-25T18:29:22;31.75;;;9.48;;
55368;SDS011;41247;49.736;8.752;2024-01-25T18:33:03;28.30;;;6.30;;
55368;SDS011;41247;49.736;8.752;2024-01-25T18:36:43;27.20;;;6.32;;
55368;SDS011;41247;49.736;8.752;2024-01-25T18:40:24;29.35;;;5.50;;
55368;SDS011;41247;49.736;8.752;2024-01-25T18:44:04;23.88;;;5.90;;
55368;SDS011;41247;49.736;8.752;2024-01-25T18:47:45;31.45;;;6.25;;
55368;SDS011;41247;49.736;8.752;2024-01-25T18:51:27;30.73;;;7.25;;
55368;SDS011;41247;49.736;8.752;2024-01-25T18:55:07;30.38;;;5.88;;
55368;SDS011;41247;49.736;8.752;2024-01-25T18:58:49;69.03;;;9.38;;
55368;SDS011;41247;49.736;8.752;2024-01-25T19:02:33;24.50;;;6.70;;
55368;SDS011;41247;49.736;8.752;2024-01-25T19:06:14;38.60;;;10.15;;
55368;SDS011;41247;49.736;8.752;2024-01-25T19:09:55;25.35;;;7.25;;
55368;SDS011;41247;49.736;8.752;2024-01-25T19:13:36;36.28;;;7.18;;
55368;SDS011;41247;49.736;8.752;2024-01-25T19:25:37;250.82;;;84.75;;
55368;SDS011;41247;49.736;8.752;2024-01-25T19:29:18;237.60;;;215.95;;
55368;SDS011;41247;49.736;8.752;2024-01-25T19:32:58;206.73;;;192.27;;
55368;SDS011;41247;49.736;8.752;2024-01-25T19:36:39;1999.90;;;999.90;;
55368;SDS011;41247;49.736;8.752;2024-01-25T19:40:20;1999.90;;;999.90;;
55368;SDS011;41247;49.736;8.752;2024-01-25T19:44:00;1999.90;;;999.90;;
55368;SDS011;41247;49.736;8.752;2024-01-25T19:47:41;1999.90;;;999.90;;
55368;SDS011;41247;49.736;8.752;2024-01-25T19:51:21;1999.90;;;999.90;;
55368;SDS011;41247;49.736;8.752;2024-01-25T19:55:02;1999.90;;;999.90;;
55368;SDS011;41247;49.736;8.752;2024-01-25T19:58:43;1999.90;;;999.90;;
55368;SDS011;41247;49.736;8.752;2024-01-25T20:02:24;1999.90;;;999.90;;
55368;SDS011;41247;49.736;8.752;2024-01-25T20:06:06;1999.90;;;999.90;;
55368;SDS011;41247;49.736;8.752;2024-01-25T20:09:53;1999.90;;;999.90;;
55368;SDS011;41247;49.736;8.752;2024-01-25T20:13:33;1999.90;;;999.90;;
55368;SDS011;41247;49.736;8.752;2024-01-25T20:17:14;1999.90;;;999.90;;
55368;SDS011;41247;49.736;8.752;2024-01-25T20:20:57;1999.90;;;999.90;;
55368;SDS011;41247;49.736;8.752;2024-01-25T20:24:37;1999.90;;;999.90;;
55368;SDS011;41247;49.736;8.752;2024-01-25T20:28:18;1999.90;;;999.90;;
55368;SDS011;41247;49.736;8.752;2024-01-25T20:31:58;1999.90;;;999.90;;
55368;SDS011;41247;49.736;8.752;2024-01-25T20:35:39;1999.90;;;999.90;;
55368;SDS011;41247;49.736;8.752;2024-01-25T20:39:20;1999.90;;;999.90;;
55368;SDS011;41247;49.736;8.752;2024-01-25T20:43:01;1999.90;;;999.90;;
55368;SDS011;41247;49.736;8.752;2024-01-25T20:46:42;1999.90;;;999.90;;
55368;SDS011;41247;49.736;8.752;2024-01-25T20:50:23;1999.90;;;999.90;;
55368;SDS011;41247;49.736;8.752;2024-01-25T20:54:04;1999.90;;;999.90;;
55368;SDS011;41247;49.736;8.752;2024-01-25T20:57:44;1999.90;;;999.90;;
55368;SDS011;41247;49.736;8.752;2024-01-25T21:01:25;1999.90;;;999.90;;
55368;SDS011;41247;49.736;8.752;2024-01-25T21:05:06;1999.90;;;999.90;;
55368;SDS011;41247;49.736;8.752;2024-01-25T21:08:48;1999.90;;;999.90;;
55368;SDS011;41247;49.736;8.752;2024-01-25T21:12:29;1999.90;;;999.90;;
55368;SDS011;41247;49.736;8.752;2024-01-25T21:16:09;1999.90;;;999.90;;
55368;SDS011;41247;49.736;8.752;2024-01-25T21:19:50;1999.90;;;999.90;;
55368;SDS011;41247;49.736;8.752;2024-01-25T21:23:31;1999.90;;;999.90;;
55368;SDS011;41247;49.736;8.752;2024-01-25T21:27:11;1999.90;;;999.90;;
55368;SDS011;41247;49.736;8.752;2024-01-25T21:30:52;1999.90;;;999.90;;
55368;SDS011;41247;49.736;8.752;2024-01-25T21:34:32;1999.90;;;999.90;;
55368;SDS011;41247;49.736;8.752;2024-01-25T21:38:14;1999.90;;;999.90;;
55368;SDS011;41247;49.736;8.752;2024-01-25T21:41:54;1999.90;;;999.90;;
55368;SDS011;41247;49.736;8.752;2024-01-25T21:45:35;1999.90;;;999.90;;
55368;SDS011;41247;49.736;8.752;2024-01-25T21:49:16;1999.90;;;999.90;;